Time;durP1;ratioP1;P1;durP2;ratioP2;P2;SDS_P1;SDS_P2;PMS_P1;PMS_P2;Temp;Humidity;BMP_temperature;BMP_pressure;BME280_temperature;BME280_humidity;BME280_pressure;Samples;Min_cycle;Max_cycle;Signal;HPM_P1;HPM_P2
2022/06/12 00:00:50;;;;;;;1.40;1.30;;;26.10;51.50;;;;;;5057786;28;20483;-81
2022/06/12 00:03:18;;;;;;;1.80;1.50;;;26.00;51.40;;;;;;5056785;28;20449;-81
2022/06/12 00:05:49;;;;;;;1.43;1.27;;;26.10;51.50;;;;;;5056783;28;20411;-81
2022/06/12 00:08:17;;;;;;;1.67;1.40;;;26.00;51.40;;;;;;5057056;28;20434;-81
2022/06/12 00:10:46;;;;;;;1.30;1.20;;;26.00;51.40;;;;;;5057178;28;20402;-81
2022/06/12 00:13:14;;;;;;;1.33;1.23;;;26.00;51.40;;;;;;5057344;28;20445;-81
2022/06/12 00:15:41;;;;;;;1.93;1.47;;;26.00;51.50;;;;;;5056822;28;20426;-82
2022/06/12 00:18:08;;;;;;;1.50;1.30;;;26.00;51.50;;;;;;5057264;28;20423;-82
2022/06/12 00:20:34;;;;;;;2.07;1.60;;;26.00;51.50;;;;;;5040303;28;20431;-82
2022/06/12 00:23:00;;;;;;;1.40;1.30;;;26.00;51.50;;;;;;5058340;28;20457;-81
2022/06/12 00:25:29;;;;;;;1.90;1.80;;;26.10;51.50;;;;;;5057840;28;20473;-81
2022/06/12 00:27:58;;;;;;;1.50;1.13;;;26.00;51.40;;;;;;5058110;28;20426;-81
2022/06/12 00:30:25;;;;;;;1.40;1.30;;;26.00;51.40;;;;;;5058282;28;20860;-81
2022/06/12 00:32:52;;;;;;;1.40;1.10;;;26.00;51.50;;;;;;5057930;28;20430;-81
2022/06/12 00:35:27;;;;;;;1.30;1.20;;;26.00;51.50;;;;;;5056746;28;20406;-81
2022/06/12 00:37:54;;;;;;;1.40;1.20;;;26.10;51.50;;;;;;5057801;28;20425;-81
2022/06/12 00:40:22;;;;;;;1.80;1.70;;;26.00;51.50;;;;;;5057918;28;20441;-81
2022/06/12 00:42:58;;;;;;;2.10;1.30;;;26.00;51.50;;;;;;5057634;28;20407;-81
2022/06/12 00:45:43;;;;;;;2.40;1.80;;;26.10;51.50;;;;;;5057833;28;20493;-81
2022/06/12 00:48:15;;;;;;;1.53;1.40;;;26.10;51.50;;;;;;5058563;28;20448;-81
2022/06/12 00:50:47;;;;;;;1.50;1.40;;;26.00;51.50;;;;;;5058124;28;20375;-81
2022/06/12 00:53:18;;;;;;;1.20;1.10;;;26.00;51.50;;;;;;5057351;28;20439;-81
2022/06/12 00:56:01;;;;;;;1.50;1.10;;;26.00;51.50;;;;;;5071725;28;20413;-81
2022/06/12 00:58:31;;;;;;;1.57;1.40;;;26.00;51.50;;;;;;5057395;28;20505;-81
2022/06/12 01:00:57;;;;;;;1.30;1.17;;;26.00;51.50;;;;;;5057827;28;20406;-81
2022/06/12 01:03:25;;;;;;;1.60;1.50;;;26.00;51.50;;;;;;5057436;28;20472;-81
2022/06/12 01:08:36;;;;;;;1.40;1.20;;;26.00;51.50;;;;;;5058242;28;20466;-81
2022/06/12 01:11:07;;;;;;;1.60;1.50;;;26.00;51.50;;;;;;5058586;28;20473;-81
2022/06/12 01:13:36;;;;;;;1.50;1.33;;;26.00;51.50;;;;;;5058515;28;20395;-81
2022/06/12 01:16:11;;;;;;;1.30;1.20;;;26.00;51.50;;;;;;5057975;28;20450;-81
2022/06/12 01:18:45;;;;;;;1.50;1.40;;;26.00;51.50;;;;;;5057847;28;20429;-81
2022/06/12 01:21:32;;;;;;;1.60;1.30;;;26.00;51.50;;;;;;5057827;28;20432;-81
2022/06/12 01:24:23;;;;;;;1.77;1.47;;;26.00;51.50;;;;;;5045064;28;20526;-81
2022/06/12 01:30:19;;;;;;;1.43;1.27;;;26.00;51.50;;;;;;5054210;28;20394;-81
2022/06/12 01:33:24;;;;;;;1.60;1.10;;;26.00;51.60;;;;;;5054915;28;20382;-81
2022/06/12 01:36:06;;;;;;;1.20;1.10;;;26.00;51.60;;;;;;5051966;28;20383;-81
2022/06/12 01:38:43;;;;;;;1.50;1.30;;;26.00;51.60;;;;;;5052453;28;20391;-81
2022/06/12 01:41:24;;;;;;;1.67;1.57;;;25.90;51.60;;;;;;5053823;28;20390;-81
2022/06/12 01:43:56;;;;;;;2.07;1.53;;;26.00;51.60;;;;;;5052513;28;20454;-81
2022/06/12 01:46:31;;;;;;;1.30;1.20;;;25.90;51.60;;;;;;5053178;28;20440;-81
2022/06/12 01:49:18;;;;;;;1.30;1.20;;;26.00;51.60;;;;;;5056373;28;20406;-81
2022/06/12 01:52:28;;;;;;;1.27;1.17;;;26.00;51.70;;;;;;5056353;28;20418;-81
2022/06/12 01:55:02;;;;;;;1.43;1.20;;;25.90;51.60;;;;;;5056391;28;20455;-81
2022/06/12 01:57:51;;;;;;;1.60;1.50;;;25.90;51.60;;;;;;5058143;28;20409;-81
2022/06/12 02:00:20;;;;;;;1.40;1.20;;;26.00;51.60;;;;;;5057915;28;20411;-81
2022/06/12 02:03:08;;;;;;;1.30;1.20;;;25.90;51.60;;;;;;5078049;28;20413;-81
2022/06/12 02:06:00;;;;;;;1.63;1.13;;;26.00;51.60;;;;;;5077705;28;20416;-81
2022/06/12 02:08:40;;;;;;;1.40;1.30;;;25.90;51.60;;;;;;5078402;28;20390;-81
2022/06/12 02:14:04;;;;;;;1.33;1.23;;;26.00;51.60;;;;;;5078480;28;20401;-81
2022/06/12 02:16:37;;;;;;;1.27;1.17;;;25.90;51.60;;;;;;5077677;28;20406;-81
2022/06/12 02:19:17;;;;;;;2.00;1.67;;;25.90;51.60;;;;;;5077506;28;20401;-81
2022/06/12 02:21:50;;;;;;;1.33;1.17;;;26.00;51.60;;;;;;5060693;28;20456;-81
2022/06/12 02:24:27;;;;;;;1.40;1.20;;;26.00;51.60;;;;;;5077671;28;20516;-81
2022/06/12 02:27:09;;;;;;;1.60;1.27;;;26.00;51.60;;;;;;5078711;28;20378;-81
2022/06/12 02:29:41;;;;;;;1.40;1.30;;;26.00;51.60;;;;;;5078728;28;20404;-81
2022/06/12 02:32:20;;;;;;;1.50;1.40;;;26.00;51.60;;;;;;5078138;28;20463;-81
2022/06/12 02:34:56;;;;;;;1.53;1.20;;;26.00;51.60;;;;;;5078339;28;20465;-81
2022/06/12 02:37:33;;;;;;;1.30;1.20;;;26.00;51.60;;;;;;5077565;28;20386;-81
2022/06/12 02:42:57;;;;;;;1.70;1.50;;;26.00;51.60;;;;;;5078058;28;20416;-81
2022/06/12 02:45:41;;;;;;;1.60;1.43;;;26.00;51.60;;;;;;5077960;28;20484;-81
2022/06/12 02:48:08;;;;;;;1.70;1.33;;;26.00;51.70;;;;;;5077503;28;20441;-81
2022/06/12 02:50:41;;;;;;;2.30;1.60;;;26.00;51.70;;;;;;5077735;28;20440;-81
2022/06/12 02:53:26;;;;;;;2.13;1.30;;;26.00;51.70;;;;;;5078722;28;20927;-81
2022/06/12 02:56:09;;;;;;;1.93;1.27;;;26.00;51.70;;;;;;5078791;28;20412;-81
2022/06/12 02:59:00;;;;;;;1.30;1.20;;;26.00;51.70;;;;;;5077430;28;20463;-81
2022/06/12 03:01:39;;;;;;;1.30;1.20;;;26.00;51.70;;;;;;5078137;28;20425;-81
2022/06/12 03:04:29;;;;;;;1.40;1.30;;;26.00;51.70;;;;;;5079889;28;20433;-81
2022/06/12 03:06:55;;;;;;;1.53;1.30;;;26.00;51.70;;;;;;5080284;28;20393;-81
2022/06/12 03:09:21;;;;;;;1.50;1.30;;;25.90;51.70;;;;;;5079698;28;20405;-81
2022/06/12 03:11:49;;;;;;;1.17;1.00;;;25.90;51.70;;;;;;5079307;28;20461;-81
2022/06/12 03:14:19;;;;;;;1.40;1.30;;;25.90;51.70;;;;;;5079584;28;20443;-81
2022/06/12 03:16:46;;;;;;;1.53;1.40;;;26.00;51.70;;;;;;5079761;28;20386;-81
2022/06/12 03:19:23;;;;;;;2.03;1.10;;;26.00;51.70;;;;;;5080109;28;20903;-81
2022/06/12 03:21:49;;;;;;;1.40;1.30;;;26.00;51.70;;;;;;5080306;28;20408;-81
2022/06/12 03:24:52;;;;;;;1.37;1.23;;;26.00;51.70;;;;;;5079449;28;20461;-81
2022/06/12 03:27:55;;;;;;;1.40;1.30;;;26.00;51.70;;;;;;5080117;28;20169;-81
2022/06/12 03:30:35;;;;;;;1.50;1.30;;;26.00;51.70;;;;;;5078907;28;20386;-81
2022/06/12 03:33:28;;;;;;;1.47;1.07;;;26.00;51.70;;;;;;5079470;28;20405;-81
2022/06/12 03:36:03;;;;;;;1.47;1.37;;;26.00;51.80;;;;;;5003283;28;20436;-81
2022/06/12 03:38:41;;;;;;;1.87;1.50;;;26.00;51.80;;;;;;5003302;28;20411;-81
2022/06/12 03:41:25;;;;;;;2.50;1.30;;;26.00;51.80;;;;;;5003111;28;20416;-81
2022/06/12 03:43:51;;;;;;;1.40;1.27;;;26.00;51.70;;;;;;5003158;28;20507;-81
2022/06/12 03:46:35;;;;;;;1.30;1.17;;;26.00;51.70;;;;;;5002887;28;20432;-81
2022/06/12 03:49:29;;;;;;;1.20;1.10;;;26.00;51.80;;;;;;5002536;28;20189;-81
2022/06/12 03:52:15;;;;;;;1.53;1.33;;;26.00;51.70;;;;;;4999929;28;20480;-80
2022/06/12 03:55:06;;;;;;;1.30;1.10;;;26.00;51.70;;;;;;5016366;28;20427;-81
2022/06/12 03:57:51;;;;;;;1.67;1.40;;;26.00;51.80;;;;;;4999522;28;20432;-81
2022/06/12 04:00:36;;;;;;;1.43;1.33;;;26.00;51.80;;;;;;4998007;28;20416;-80
2022/06/12 04:03:09;;;;;;;1.40;1.30;;;26.00;51.70;;;;;;4996182;28;20905;-81
2022/06/12 04:05:38;;;;;;;1.60;1.20;;;26.00;51.70;;;;;;4995236;28;20451;-81
2022/06/12 04:08:07;;;;;;;1.43;1.33;;;26.00;51.70;;;;;;4996605;28;20424;-81
2022/06/12 04:10:36;;;;;;;1.60;1.20;;;26.00;51.70;;;;;;4995734;28;20411;-81
2022/06/12 04:13:06;;;;;;;1.43;1.33;;;26.10;51.70;;;;;;5038057;28;20413;-81
2022/06/12 04:15:39;;;;;;;1.23;1.13;;;26.00;51.60;;;;;;5073284;28;20414;-81
2022/06/12 04:18:05;;;;;;;1.37;1.27;;;26.10;51.70;;;;;;5073921;28;20402;-81
2022/06/12 04:20:50;;;;;;;1.40;1.23;;;26.10;51.70;;;;;;5073848;28;20488;-81
2022/06/12 04:23:43;;;;;;;2.63;1.47;;;26.10;51.60;;;;;;5074759;28;20437;-81
2022/06/12 04:26:31;;;;;;;1.70;1.60;;;26.10;51.70;;;;;;5074582;28;20419;-81
2022/06/12 04:29:06;;;;;;;1.40;1.27;;;26.10;51.70;;;;;;5074036;28;20455;-81
2022/06/12 04:31:34;;;;;;;1.77;1.37;;;26.10;51.70;;;;;;5074517;28;20393;-81
2022/06/12 04:34:24;;;;;;;1.50;1.40;;;26.10;51.70;;;;;;5075826;28;20410;-81
2022/06/12 04:36:54;;;;;;;1.57;1.30;;;26.10;51.70;;;;;;5075550;28;20643;-81
2022/06/12 04:39:24;;;;;;;1.30;1.20;;;26.10;51.70;;;;;;5076352;28;20386;-81
2022/06/12 04:41:51;;;;;;;1.60;1.40;;;26.10;51.70;;;;;;5075215;28;20405;-81
2022/06/12 04:44:17;;;;;;;1.33;1.23;;;26.10;51.70;;;;;;5076116;28;20461;-81
2022/06/12 04:46:45;;;;;;;1.93;1.33;;;26.20;51.70;;;;;;5075482;28;20401;-81
2022/06/12 04:49:16;;;;;;;1.40;1.30;;;26.20;51.70;;;;;;5075515;28;20477;-81
2022/06/12 04:51:42;;;;;;;1.50;1.40;;;26.20;51.70;;;;;;5075970;28;20411;-81
2022/06/12 04:54:08;;;;;;;1.50;1.40;;;26.20;51.70;;;;;;5076547;28;20402;-81
2022/06/12 04:56:34;;;;;;;1.40;1.30;;;26.20;51.70;;;;;;5076047;28;20401;-81
2022/06/12 04:59:02;;;;;;;1.57;1.20;;;26.20;51.70;;;;;;5059782;28;20448;-81
2022/06/12 05:01:29;;;;;;;1.30;1.20;;;26.20;51.70;;;;;;5076570;28;20436;-81
2022/06/12 05:03:56;;;;;;;1.43;1.33;;;26.20;51.70;;;;;;5076498;28;20555;-81
2022/06/12 05:06:23;;;;;;;1.50;1.40;;;26.20;51.70;;;;;;5075467;28;20420;-81
2022/06/12 05:08:49;;;;;;;1.67;1.50;;;26.20;51.70;;;;;;5076358;28;20580;-81
2022/06/12 05:11:16;;;;;;;1.30;1.03;;;26.20;51.60;;;;;;5074178;28;20424;-81
2022/06/12 05:13:43;;;;;;;1.60;1.30;;;26.30;51.70;;;;;;5068231;28;20417;-81
2022/06/12 05:16:17;;;;;;;1.30;1.20;;;26.20;51.60;;;;;;5069906;28;20481;-81
2022/06/12 05:18:43;;;;;;;1.57;1.47;;;26.20;51.70;;;;;;5068406;28;20435;-81
2022/06/12 05:21:09;;;;;;;1.93;1.50;;;26.20;51.60;;;;;;5072375;28;20421;-81
2022/06/12 05:23:35;;;;;;;1.30;1.17;;;26.30;51.70;;;;;;5073148;28;20206;-81
2022/06/12 05:26:01;;;;;;;1.20;1.10;;;26.20;51.60;;;;;;5073938;28;20170;-81
2022/06/12 05:28:28;;;;;;;1.40;1.30;;;26.30;51.70;;;;;;5072637;28;20272;-81
2022/06/12 05:30:54;;;;;;;1.30;1.20;;;26.20;51.60;;;;;;5073059;28;20503;-81
2022/06/12 05:33:19;;;;;;;1.50;1.40;;;26.30;51.70;;;;;;5074077;28;20417;-81
2022/06/12 05:35:46;;;;;;;1.43;1.27;;;26.30;51.70;;;;;;5072783;28;20235;-81
2022/06/12 05:38:12;;;;;;;1.30;1.20;;;26.30;51.70;;;;;;5073135;28;20198;-81
2022/06/12 05:40:40;;;;;;;1.33;1.23;;;26.30;51.70;;;;;;5072512;28;20413;-81
2022/06/12 05:43:06;;;;;;;1.57;1.30;;;26.30;51.70;;;;;;5072660;28;20256;-81
2022/06/12 05:45:32;;;;;;;1.47;1.37;;;26.30;51.70;;;;;;5073457;28;20404;-81
2022/06/12 05:48:12;;;;;;;1.17;1.07;;;26.30;51.70;;;;;;5072434;28;20514;-81
2022/06/12 05:50:47;;;;;;;1.90;1.43;;;26.30;51.70;;;;;;5072406;28;20412;-80
2022/06/12 05:53:12;;;;;;;1.70;1.40;;;26.30;51.70;;;;;;5074015;28;20454;-80
2022/06/12 05:55:38;;;;;;;1.90;1.47;;;26.30;51.70;;;;;;5072699;28;20416;-80
2022/06/12 05:58:04;;;;;;;1.63;1.47;;;26.30;51.70;;;;;;5073145;28;20183;-81
2022/06/12 06:00:31;;;;;;;1.43;1.30;;;26.40;51.70;;;;;;5073868;28;20488;-82
2022/06/12 06:02:57;;;;;;;1.40;1.20;;;26.30;51.70;;;;;;5073530;28;20423;-80
2022/06/12 06:05:23;;;;;;;1.30;1.17;;;26.40;51.70;;;;;;5072154;28;20423;-80
2022/06/12 06:07:49;;;;;;;1.33;1.23;;;26.40;51.70;;;;;;5072793;28;20433;-80
2022/06/12 06:10:21;;;;;;;1.43;1.33;;;26.40;51.70;;;;;;5073318;28;20217;-80
2022/06/12 06:12:47;;;;;;;1.30;1.20;;;26.40;51.70;;;;;;5072396;28;20164;-80
2022/06/12 06:15:14;;;;;;;1.53;1.43;;;26.40;51.70;;;;;;5073462;28;20418;-80
2022/06/12 06:17:40;;;;;;;1.40;1.30;;;26.40;51.70;;;;;;5072323;28;20451;-80
2022/06/12 06:20:08;;;;;;;1.40;1.30;;;26.40;51.70;;;;;;5072428;28;20448;-80
2022/06/12 06:22:34;;;;;;;1.33;1.23;;;26.40;51.70;;;;;;5072161;28;20394;-81
2022/06/12 06:25:00;;;;;;;1.80;1.47;;;26.40;51.70;;;;;;5073237;28;20487;-82
2022/06/12 06:27:27;;;;;;;1.20;1.10;;;26.40;51.70;;;;;;5072097;28;20167;-81
2022/06/12 06:29:53;;;;;;;1.60;1.10;;;26.40;51.70;;;;;;5072567;28;20221;-82
2022/06/12 06:32:18;;;;;;;1.80;1.23;;;26.40;51.70;;;;;;5070988;28;20401;-82
2022/06/12 06:34:44;;;;;;;1.40;1.30;;;26.40;51.70;;;;;;5072559;28;20182;-81
2022/06/12 06:37:13;;;;;;;1.63;1.50;;;26.40;51.70;;;;;;5071995;28;20182;-82
2022/06/12 06:39:40;;;;;;;1.40;1.30;;;26.40;51.70;;;;;;5073209;28;20241;-82
2022/06/12 06:42:07;;;;;;;1.40;1.30;;;26.40;51.70;;;;;;5072975;28;20414;-82
2022/06/12 06:47:38;;;;;;;1.33;1.23;;;26.40;51.70;;;;;;5011256;28;20428;-82
2022/06/12 06:50:07;;;;;;;1.53;1.43;;;26.40;51.70;;;;;;5011462;28;20431;-82
2022/06/12 06:52:33;;;;;;;1.77;1.30;;;26.40;52.30;;;;;;5040532;28;20907;-82
2022/06/12 06:54:59;;;;;;;1.40;1.30;;;26.40;51.70;;;;;;5071047;28;20432;-82
2022/06/12 06:57:25;;;;;;;1.50;1.40;;;26.40;51.70;;;;;;5072093;28;20629;-81
2022/06/12 06:59:51;;;;;;;1.70;1.27;;;26.40;51.70;;;;;;5070685;28;20428;-82
2022/06/12 07:02:16;;;;;;;1.33;1.23;;;26.40;51.70;;;;;;5071782;28;20410;-82
2022/06/12 07:04:43;;;;;;;1.33;1.10;;;26.40;51.70;;;;;;5070857;28;20202;-82
2022/06/12 07:07:10;;;;;;;1.40;1.30;;;26.40;51.80;;;;;;5071869;28;20167;-80
2022/06/12 07:09:39;;;;;;;1.53;1.33;;;26.40;51.80;;;;;;5071534;28;20470;-80
2022/06/12 07:12:06;;;;;;;1.50;1.40;;;26.40;51.70;;;;;;5071400;28;20413;-80
2022/06/12 07:14:33;;;;;;;1.47;1.37;;;26.40;51.70;;;;;;5071679;28;20472;-80
2022/06/12 07:17:00;;;;;;;1.30;1.10;;;26.40;52.30;;;;;;5055241;28;20432;-80
2022/06/12 07:19:26;;;;;;;1.60;1.50;;;26.40;51.70;;;;;;5070763;28;20475;-81
2022/06/12 07:21:53;;;;;;;1.30;1.20;;;26.40;51.70;;;;;;5072100;28;20405;-81
2022/06/12 07:24:19;;;;;;;1.40;1.30;;;26.40;51.70;;;;;;5070910;28;20472;-81
2022/06/12 07:26:47;;;;;;;1.33;1.20;;;26.40;51.70;;;;;;5073882;28;20907;-81
2022/06/12 07:29:16;;;;;;;1.10;1.00;;;26.40;51.70;;;;;;5073142;28;20402;-81
2022/06/12 07:31:42;;;;;;;1.37;1.27;;;26.40;51.70;;;;;;5071987;28;20413;-81
2022/06/12 07:34:11;;;;;;;1.40;1.30;;;26.40;51.70;;;;;;5074291;28;20436;-81
2022/06/12 07:36:38;;;;;;;1.30;1.13;;;26.40;51.70;;;;;;5073893;28;20439;-81
2022/06/12 07:39:07;;;;;;;1.27;1.17;;;26.40;51.80;;;;;;5071746;28;20414;-81
2022/06/12 07:41:33;;;;;;;1.30;1.13;;;26.40;51.70;;;;;;5075162;28;20414;-81
2022/06/12 07:43:59;;;;;;;1.40;1.30;;;26.40;51.70;;;;;;5073741;28;20456;-82
2022/06/12 07:46:27;;;;;;;1.30;1.00;;;26.40;51.70;;;;;;5072041;28;20175;-81
2022/06/12 07:48:54;;;;;;;1.50;1.23;;;26.40;51.70;;;;;;5070761;28;20435;-81
2022/06/12 07:51:22;;;;;;;1.50;1.23;;;26.40;51.70;;;;;;5072109;28;20410;-81
2022/06/12 07:53:49;;;;;;;1.53;1.30;;;26.40;51.80;;;;;;5070210;28;20424;-81
2022/06/12 07:56:18;;;;;;;1.50;1.40;;;26.40;51.70;;;;;;5071019;28;20432;-80
2022/06/12 07:58:45;;;;;;;1.33;1.20;;;26.40;51.80;;;;;;5070330;28;20858;-80
2022/06/12 08:01:15;;;;;;;1.43;1.27;;;26.40;51.80;;;;;;5070865;28;20420;-81
2022/06/12 08:03:42;;;;;;;1.50;1.13;;;26.40;51.80;;;;;;5072102;28;20441;-80
2022/06/12 08:06:09;;;;;;;1.40;1.30;;;26.40;51.80;;;;;;5071776;28;20409;-80
2022/06/12 08:08:38;;;;;;;1.60;1.33;;;26.40;51.80;;;;;;5071484;28;20473;-80
2022/06/12 08:11:04;;;;;;;1.40;1.30;;;26.40;51.80;;;;;;5070452;28;20473;-80
2022/06/12 08:13:31;;;;;;;1.10;0.90;;;26.40;51.80;;;;;;5071684;28;20432;-81
2022/06/12 08:15:58;;;;;;;1.50;1.40;;;26.40;51.80;;;;;;5069991;28;20171;-81
2022/06/12 08:18:25;;;;;;;1.60;1.50;;;26.40;51.80;;;;;;5071472;28;20422;-81
2022/06/12 08:20:58;;;;;;;1.40;1.30;;;26.40;51.80;;;;;;5070167;28;21002;-81
2022/06/12 08:23:43;;;;;;;1.30;1.20;;;26.40;51.80;;;;;;5070042;28;21086;-81
2022/06/12 08:26:16;;;;;;;1.20;1.10;;;26.40;51.80;;;;;;5073462;28;20385;-81
2022/06/12 08:29:09;;;;;;;1.30;1.20;;;26.40;51.80;;;;;;5072016;28;20416;-82
2022/06/12 08:31:41;;;;;;;1.33;1.23;;;26.40;51.80;;;;;;5071632;28;20401;-81
2022/06/12 08:34:12;;;;;;;1.20;1.10;;;26.40;51.80;;;;;;5072883;28;20414;-81
2022/06/12 08:36:39;;;;;;;1.30;1.20;;;26.40;51.80;;;;;;5071812;28;20444;-81
2022/06/12 08:39:07;;;;;;;1.53;1.20;;;26.40;51.80;;;;;;5071191;28;20414;-81
2022/06/12 08:41:56;;;;;;;1.20;1.10;;;26.40;51.80;;;;;;5072354;28;20421;-81
2022/06/12 08:44:29;;;;;;;1.40;1.23;;;26.40;51.80;;;;;;5070174;28;20445;-81
2022/06/12 08:47:02;;;;;;;1.37;1.27;;;26.40;51.80;;;;;;5070268;28;20409;-81
2022/06/12 08:49:41;;;;;;;1.50;1.40;;;26.40;51.80;;;;;;5071106;28;20409;-80
2022/06/12 08:52:24;;;;;;;1.10;1.00;;;26.40;51.80;;;;;;5069574;28;20405;-81
2022/06/12 08:55:22;;;;;;;1.10;1.00;;;26.40;51.80;;;;;;5070005;28;20416;-80
2022/06/12 08:58:15;;;;;;;1.00;0.90;;;26.40;51.80;;;;;;5073809;28;20425;-80
2022/06/12 09:00:43;;;;;;;1.33;1.23;;;26.40;51.90;;;;;;5061657;28;20441;-80
2022/06/12 09:03:15;;;;;;;1.60;1.23;;;26.40;51.90;;;;;;5075335;28;20501;-80
2022/06/12 09:06:01;;;;;;;1.30;1.20;;;26.40;51.90;;;;;;5074528;28;20402;-80
2022/06/12 09:08:57;;;;;;;1.33;1.20;;;26.40;51.90;;;;;;5074558;28;20481;-80
2022/06/12 09:11:29;;;;;;;1.20;1.10;;;26.40;51.90;;;;;;5013902;28;20422;-80
2022/06/12 09:14:14;;;;;;;1.40;1.30;;;26.40;51.90;;;;;;5012220;28;20827;-82
2022/06/12 09:16:56;;;;;;;1.20;1.10;;;26.40;51.90;;;;;;4997697;28;20435;-80
2022/06/12 09:19:49;;;;;;;1.30;1.20;;;26.40;51.90;;;;;;5011737;28;20403;-80
2022/06/12 09:22:30;;;;;;;1.40;1.30;;;26.40;51.90;;;;;;5005314;28;20431;-80
2022/06/12 09:25:26;;;;;;;1.30;1.20;;;26.40;51.90;;;;;;4995563;28;20555;-80
2022/06/12 09:28:01;;;;;;;1.23;1.13;;;26.40;51.90;;;;;;4976496;28;20448;-80
2022/06/12 09:30:49;;;;;;;1.50;1.40;;;26.40;51.90;;;;;;4992709;28;20443;-80
2022/06/12 09:33:39;;;;;;;1.63;1.33;;;26.40;51.90;;;;;;4992837;28;20425;-80
2022/06/12 09:36:40;;;;;;;1.20;1.10;;;26.40;51.90;;;;;;4992793;28;20425;-80
2022/06/12 09:39:22;;;;;;;1.40;1.30;;;26.40;51.90;;;;;;4976797;28;20782;-79
2022/06/12 09:41:58;;;;;;;1.00;0.90;;;26.40;52.00;;;;;;4993580;28;20421;-79
2022/06/12 09:47:48;;;;;;;1.30;1.20;;;26.40;52.00;;;;;;5000748;28;20414;-80
2022/06/12 09:50:30;;;;;;;1.10;1.00;;;26.40;52.00;;;;;;5014997;28;20412;-81
2022/06/12 09:53:17;;;;;;;1.63;1.53;;;26.40;52.00;;;;;;5014525;28;20419;-81
2022/06/12 09:55:53;;;;;;;1.60;1.40;;;26.40;52.00;;;;;;5013255;28;20411;-81
2022/06/12 09:58:46;;;;;;;1.27;1.17;;;26.40;52.00;;;;;;5031144;28;20438;-81
2022/06/12 10:01:24;;;;;;;1.30;1.20;;;26.40;52.00;;;;;;5025551;28;20473;-81
2022/06/12 10:04:12;;;;;;;1.30;1.17;;;26.40;52.00;;;;;;5019583;28;20446;-81
2022/06/12 10:06:48;;;;;;;1.37;1.27;;;26.40;52.00;;;;;;5073180;28;20409;-81
2022/06/12 10:09:37;;;;;;;1.33;1.23;;;26.40;52.00;;;;;;5077271;28;20400;-81
2022/06/12 10:12:15;;;;;;;1.30;1.20;;;26.40;52.00;;;;;;5076155;28;20402;-81
2022/06/12 10:14:46;;;;;;;1.50;1.40;;;26.40;52.50;;;;;;5076129;28;20405;-81
2022/06/12 10:17:15;;;;;;;1.20;1.10;;;26.40;52.00;;;;;;5076463;28;20429;-81
2022/06/12 10:20:01;;;;;;;1.50;1.30;;;26.40;52.00;;;;;;5076745;28;20469;-81
2022/06/12 10:22:41;;;;;;;1.30;1.17;;;26.40;52.00;;;;;;5074102;28;20504;-81
2022/06/12 10:25:24;;;;;;;1.20;1.10;;;26.40;52.00;;;;;;5073681;28;20471;-81
2022/06/12 10:27:55;;;;;;;1.37;1.27;;;26.40;52.00;;;;;;5073828;28;20417;-81
2022/06/12 10:30:34;;;;;;;1.40;1.30;;;26.40;52.00;;;;;;5074225;28;20490;-81
2022/06/12 10:33:21;;;;;;;1.57;1.20;;;26.40;52.00;;;;;;5073636;28;20808;-81
2022/06/12 10:35:49;;;;;;;1.37;1.27;;;26.40;52.00;;;;;;5074647;28;20405;-80
2022/06/12 10:38:17;;;;;;;1.90;1.20;;;26.40;52.00;;;;;;5075467;28;20406;-81
2022/06/12 10:40:55;;;;;;;1.50;1.40;;;26.40;52.00;;;;;;5075443;28;20430;-81
2022/06/12 10:43:43;;;;;;;1.50;1.20;;;26.40;52.00;;;;;;5074972;28;20918;-81
2022/06/12 10:46:18;;;;;;;1.40;1.30;;;26.40;52.00;;;;;;5074211;28;20409;-80
2022/06/12 10:49:00;;;;;;;1.30;1.20;;;26.40;52.00;;;;;;5076440;28;20401;-81
2022/06/12 10:51:38;;;;;;;1.30;1.20;;;26.40;52.00;;;;;;5076128;28;20414;-81
2022/06/12 10:54:28;;;;;;;1.27;1.17;;;26.40;52.00;;;;;;5075879;28;20413;-81
2022/06/12 10:57:19;;;;;;;1.30;1.20;;;26.40;52.00;;;;;;5075565;28;20413;-80
2022/06/12 11:00:10;;;;;;;1.20;1.10;;;26.40;52.00;;;;;;5077890;28;20425;-80
2022/06/12 11:02:52;;;;;;;1.30;1.00;;;26.40;52.00;;;;;;5076485;28;20424;-80
2022/06/12 11:05:55;;;;;;;1.47;1.20;;;26.40;52.00;;;;;;5075910;28;20385;-80
2022/06/12 11:09:02;;;;;;;1.50;1.40;;;26.40;52.00;;;;;;5077110;28;20761;-79
2022/06/12 11:11:39;;;;;;;1.13;1.03;;;26.40;52.00;;;;;;5073506;28;20922;-79
2022/06/12 11:14:05;;;;;;;1.30;1.20;;;26.40;52.00;;;;;;5075171;28;20857;-79
2022/06/12 11:16:43;;;;;;;1.30;1.20;;;26.40;52.00;;;;;;5075194;28;20417;-79
2022/06/12 11:19:08;;;;;;;1.20;1.10;;;26.40;52.00;;;;;;5072163;28;20185;-79
2022/06/12 11:21:49;;;;;;;1.17;1.03;;;26.40;52.00;;;;;;5071710;28;20417;-79
2022/06/12 11:24:19;;;;;;;1.27;1.17;;;26.40;52.00;;;;;;5072159;28;20203;-79
2022/06/12 11:27:16;;;;;;;1.37;1.07;;;26.40;52.00;;;;;;5072633;28;20499;-79
2022/06/12 11:30:03;;;;;;;1.40;1.20;;;26.40;52.00;;;;;;5072735;28;20418;-79
2022/06/12 11:33:07;;;;;;;1.20;1.10;;;26.40;52.00;;;;;;5073102;28;20445;-81
2022/06/12 11:35:53;;;;;;;1.40;1.20;;;26.40;52.00;;;;;;5071495;28;20413;-79
2022/06/12 11:38:45;;;;;;;1.20;1.10;;;26.40;52.00;;;;;;5072490;28;20504;-79
2022/06/12 11:41:22;;;;;;;1.50;1.40;;;26.40;52.00;;;;;;5073296;28;20403;-79
2022/06/12 11:44:16;;;;;;;1.40;1.30;;;26.40;52.00;;;;;;5073525;28;20497;-80
2022/06/12 11:47:06;;;;;;;1.77;1.40;;;26.40;52.00;;;;;;5074158;28;20377;-80
2022/06/12 11:49:50;;;;;;;3.03;1.20;;;26.40;52.00;;;;;;5072461;28;20410;-80
2022/06/12 11:52:40;;;;;;;1.50;1.40;;;26.40;52.10;;;;;;5072562;28;20390;-80
2022/06/12 11:55:29;;;;;;;1.13;1.00;;;26.40;52.10;;;;;;5073003;28;20398;-80
2022/06/12 11:58:01;;;;;;;1.20;1.10;;;26.40;52.10;;;;;;5045819;28;20445;-80
2022/06/12 12:00:53;;;;;;;1.30;1.20;;;26.40;52.10;;;;;;5075497;28;20417;-80
2022/06/12 12:03:43;;;;;;;1.87;1.20;;;26.40;52.10;;;;;;5073655;28;20457;-79
2022/06/12 12:06:28;;;;;;;1.47;1.37;;;26.40;52.10;;;;;;5074614;28;20463;-80
2022/06/12 12:09:14;;;;;;;1.13;1.03;;;26.40;52.10;;;;;;5073914;28;20409;-80
2022/06/12 12:11:49;;;;;;;1.53;1.40;;;26.40;52.10;;;;;;5072644;28;20407;-80
2022/06/12 12:14:25;;;;;;;1.70;1.50;;;26.40;52.10;;;;;;5073256;28;20504;-80
2022/06/12 12:17:03;;;;;;;1.40;1.30;;;26.40;52.10;;;;;;5070142;28;20409;-80
2022/06/12 12:19:40;;;;;;;1.37;1.27;;;26.40;52.60;;;;;;5069811;28;20471;-80
2022/06/12 12:22:12;;;;;;;1.67;1.57;;;26.40;52.10;;;;;;5069559;28;20425;-80
2022/06/12 12:24:46;;;;;;;1.40;1.30;;;26.40;52.10;;;;;;5071595;28;20935;-80
2022/06/12 12:27:46;;;;;;;1.30;1.20;;;26.40;52.00;;;;;;5070735;28;20393;-81
2022/06/12 12:30:24;;;;;;;1.50;1.40;;;26.40;52.00;;;;;;5067714;28;20488;-80
2022/06/12 12:32:53;;;;;;;1.30;1.20;;;26.40;52.10;;;;;;5072371;28;20378;-80
2022/06/12 12:41:12;;;;;;;1.40;1.20;;;26.40;52.00;;;;;;5073538;28;20439;-80
2022/06/12 12:43:54;;;;;;;2.90;1.30;;;26.40;52.10;;;;;;5072836;28;20485;-80
2022/06/12 12:46:22;;;;;;;1.53;1.17;;;26.40;52.10;;;;;;5073291;28;20396;-80
2022/06/12 12:48:50;;;;;;;1.60;1.30;;;26.40;52.60;;;;;;5074165;28;20401;-80
2022/06/12 12:51:31;;;;;;;1.20;1.10;;;26.40;52.00;;;;;;5073854;28;20413;-80
2022/06/12 12:54:18;;;;;;;1.40;1.30;;;26.40;52.00;;;;;;5073342;28;20430;-80
2022/06/12 12:56:56;;;;;;;1.30;1.20;;;26.40;52.00;;;;;;5073994;28;20406;-80
2022/06/12 12:59:22;;;;;;;1.33;1.23;;;26.40;52.10;;;;;;5075118;28;20500;-80
2022/06/12 13:01:50;;;;;;;1.87;1.30;;;26.40;52.10;;;;;;5072957;28;20445;-80
2022/06/12 13:04:21;;;;;;;1.50;1.40;;;26.50;52.10;;;;;;5073676;28;20460;-80
2022/06/12 13:07:03;;;;;;;1.50;1.30;;;26.50;52.10;;;;;;5073725;28;20394;-80
2022/06/12 13:09:48;;;;;;;1.40;1.10;;;26.50;52.10;;;;;;5074992;28;20385;-80
2022/06/12 13:12:22;;;;;;;1.20;1.10;;;26.50;52.10;;;;;;5074766;28;20409;-80
2022/06/12 13:15:07;;;;;;;1.30;1.20;;;26.50;52.10;;;;;;5073399;28;20420;-80
2022/06/12 13:17:59;;;;;;;1.30;1.20;;;26.50;52.10;;;;;;5074705;28;20406;-80
2022/06/12 13:20:28;;;;;;;1.10;1.00;;;26.50;52.10;;;;;;5075049;28;20390;-80
2022/06/12 13:23:04;;;;;;;3.43;1.10;;;26.50;52.10;;;;;;5074912;28;20431;-79
2022/06/12 13:25:40;;;;;;;1.60;1.50;;;26.50;52.10;;;;;;5075172;28;20385;-80
2022/06/12 13:34:54;;;;;;;1.60;1.30;;;26.50;52.10;;;;;;5075160;28;20424;-80
2022/06/12 13:37:20;;;;;;;1.20;1.10;;;26.50;52.10;;;;;;5073447;28;20417;-80
2022/06/12 13:43:21;;;;;;;1.30;1.20;;;26.50;52.10;;;;;;5075086;28;20232;-81
2022/06/12 13:45:56;;;;;;;1.33;1.23;;;26.40;52.10;;;;;;5073967;28;20409;-80
2022/06/12 13:48:26;;;;;;;1.47;1.37;;;26.50;52.20;;;;;;5075721;28;20386;-79
2022/06/12 13:51:17;;;;;;;1.33;1.23;;;26.50;52.20;;;;;;5075215;28;20438;-79
2022/06/12 13:53:48;;;;;;;1.30;1.20;;;26.50;52.10;;;;;;5074192;28;20459;-79
2022/06/12 13:56:17;;;;;;;1.30;1.20;;;26.50;52.10;;;;;;5073984;28;20795;-79
2022/06/12 13:58:51;;;;;;;1.20;1.00;;;26.50;52.10;;;;;;5077007;28;20437;-79
2022/06/12 14:01:29;;;;;;;1.37;1.07;;;26.50;52.10;;;;;;5079250;28;20416;-79
2022/06/12 14:04:05;;;;;;;1.40;1.23;;;26.50;52.10;;;;;;5076451;28;20801;-79